This is the latest recevied weather packets stored in our database for station/object PY2XH-13. If no packets are shown the sender has not sent any weather packets the latest 10 day(s).
| Time | Temp. | Humidity | Pressure | Rain* | Wind** | Luminosity | Snow |
|---|---|---|---|---|---|---|---|
| 1788444965 | 20° C | 58% | 1031.8 hPa | - | - | - | - |
| 1788441365 | 20° C | 60% | 1032.8 hPa | - | - | - | - |
| 1788432365 | 19.44° C | 60% | 1033.4 hPa | - | - | - | - |
| 1788430565 | 19.44° C | 61% | 1033.4 hPa | - | - | - | - |
| 1788428765 | 19.44° C | 61% | 1033.2 hPa | - | - | - | - |
| 1788426964 | 20° C | 60% | 1033 hPa | - | - | - | - |
| 1788423364 | 20° C | 58% | 1032.7 hPa | - | - | - | - |
| 1788421564 | 20° C | 58% | 1032.5 hPa | - | - | - | - |
| 1788419764 | 20° C | 58% | 1032.8 hPa | - | - | - | - |
| 1788417964 | 20.56° C | 58% | 1032.6 hPa | - | - | - | - |
| 1788416164 | 20.56° C | 58% | 1032.8 hPa | - | - | - | - |
| 1788412564 | 20.56° C | 58% | 1033.3 hPa | - | - | - | - |
| 1788410764 | 20.56° C | 58% | 1033.5 hPa | - | - | - | - |
| 1788408964 | 20.56° C | 58% | 1033.7 hPa | - | - | - | - |
| 1788407164 | 20.56° C | 58% | 1034.1 hPa | - | - | - | - |
| 1788405364 | 20.56° C | 58% | 1034.2 hPa | - | - | - | - |
| 1788403564 | 21.11° C | 58% | 1034.6 hPa | - | - | - | - |
| 1788399965 | 21.11° C | 59% | 1035 hPa | - | - | - | - |
| 1788378365 | 21.67° C | 55% | 1033.6 hPa | - | - | - | - |
| 1788369364 | 22.78° C | 46% | 1032.5 hPa | - | - | - | - |
| 1788365764 | 21.67° C | 49% | 1033.2 hPa | - | - | - | - |
| 1788363964 | 21.11° C | 51% | 1033.5 hPa | - | - | - | - |
| 1788358564 | 21.11° C | 61% | 1034.1 hPa | - | - | - | - |
| 1788354964 | 20.56° C | 59% | 1034.5 hPa | - | - | - | - |
| 1788353165 | 20.56° C | 57% | 1034.6 hPa | - | - | - | - |
* Rain since midnight (hover to see other rain measurements)
** Current wind speed in m/s (hover to see current wind gust speed)